首页
METAR-TAF:

METAR-TAF

机场 :

泰德·史蒂文斯安克雷奇國際機場

安克拉治, 阿拉斯加州, 美国

纬度: 61-10-28N, 经度: 149-59-46W, 海拔: 44米

当前天气观测

该预报发布于19分钟前的22:53 UTC
风速6节,风向西转西南
温度 14°C
湿度 58%
气压 1018 hPa
能見度: 16.1公里
少量云层高于3000英尺
多云层高于4800英尺
多云层高于14000英尺

METAR: PANC 232253Z 24006KT 10SM FEW030 BKN048 BKN140 14/06 A3006 RMK AO2 SLP180 T01440056

时间: 15:12 (23:12 UTC)

预报

该预报发布于3小时和0分钟前的20:12 UTC
预报有效从23日的 20点(UTC)到 24日的 24点(UTC)
风速5节,风向西南
能見度: 10公里
散云层高于3500英尺
多云层高于5000英尺
阴天层高于15000英尺
从 23日的 2200点(UTC)
风速6节,风向西转西北
能見度: 10公里
多云层高于5000英尺
阴天层高于15000英尺
从 24日的 0900点(UTC)
风速5节,风向南转西南
能見度: 10公里
散云层高于3000英尺
阴天层高于6000英尺
小雨
从 24日的 1800点(UTC)
风速5节,风向西
能見度: 10公里
阴天层高于5000英尺

TAF: PANC 232012Z 2320/2424 22005KT P6SM SCT035 BKN050 OVC150 FM232200 30006KT P6SM BKN050 OVC150 FM240900 20005KT P6SM -RA SCT030 OVC060 FM241800 27005KT P6SM OVC050

超过4000个机场的气象观测和天气预报(METAR&TAF报告)。

可查询的气象台以黄色和红色小点在地图上表示。

将鼠标移到小点上方,可查看气象台名称。

然后点击查看天气观测和预报。

如需切换地图:点击带黑十字的绿色按钮放大地图;点击带横线的绿色按钮缩小地图;或者点击绿色箭头查看邻近地区的地图。


METAR-TAF: